createdAt,value
2023-04-17T00:00:02.934Z,1012.82
2023-04-17T00:01:03.450Z,1012.89
2023-04-17T00:02:02.553Z,1012.90
2023-04-17T00:03:02.638Z,1012.86
2023-04-17T00:04:02.635Z,1012.91
2023-04-17T00:05:02.190Z,1012.91
2023-04-17T00:06:02.594Z,1012.86
2023-04-17T00:07:02.620Z,1012.86
2023-04-17T00:08:02.970Z,1012.92
2023-04-17T00:09:02.522Z,1012.89
2023-04-17T00:10:02.464Z,1012.94
2023-04-17T00:11:07.813Z,1012.92
2023-04-17T00:12:02.599Z,1012.89
2023-04-17T00:13:03.068Z,1012.89
2023-04-17T00:14:02.922Z,1012.88
2023-04-17T00:15:02.835Z,1012.96
2023-04-17T00:16:03.262Z,1012.93
2023-04-17T00:17:01.940Z,1012.92
2023-04-17T00:18:01.716Z,1012.90
2023-04-17T00:19:02.112Z,1012.88
2023-04-17T00:20:01.922Z,1012.87
2023-04-17T00:21:02.212Z,1012.87
2023-04-17T00:22:01.960Z,1012.87
2023-04-17T00:23:02.221Z,1012.91
2023-04-17T00:24:01.939Z,1012.85
2023-04-17T00:25:02.000Z,1012.89
2023-04-17T00:26:01.920Z,1012.90
2023-04-17T00:27:02.915Z,1012.82
2023-04-17T00:28:02.892Z,1012.88
2023-04-17T00:29:02.340Z,1012.90
2023-04-17T00:30:02.657Z,1012.85
2023-04-17T00:31:02.580Z,1012.89
2023-04-17T00:32:02.674Z,1012.89
2023-04-17T00:33:03.015Z,1012.87
2023-04-17T00:34:03.022Z,1012.84
2023-04-17T00:35:03.144Z,1012.85
2023-04-17T00:36:02.871Z,1012.84
2023-04-17T00:37:02.782Z,1012.77
2023-04-17T00:38:03.136Z,1012.81
2023-04-17T00:39:02.610Z,1012.78
2023-04-17T00:40:03.127Z,1012.80
2023-04-17T00:41:02.665Z,1012.77
2023-04-17T00:42:02.300Z,1012.80
2023-04-17T00:43:02.494Z,1012.77
2023-04-17T00:44:02.706Z,1012.76
2023-04-17T00:45:02.671Z,1012.75
2023-04-17T00:46:02.327Z,1012.77
2023-04-17T00:47:03.004Z,1012.72
2023-04-17T00:48:03.211Z,1012.76
2023-04-17T00:49:03.018Z,1012.73
2023-04-17T00:50:02.889Z,1012.69
2023-04-17T00:51:02.776Z,1012.72
2023-04-17T00:52:02.528Z,1012.72
2023-04-17T00:53:02.148Z,1012.68
2023-04-17T00:54:02.147Z,1012.64
2023-04-17T00:55:02.145Z,1012.71
2023-04-17T00:56:02.356Z,1012.73
2023-04-17T00:57:02.006Z,1012.71
2023-04-17T00:58:01.799Z,1012.71
2023-04-17T00:59:02.185Z,1012.71
2023-04-17T01:00:01.777Z,1012.70
2023-04-17T01:01:01.895Z,1012.68
2023-04-17T01:02:02.628Z,1012.73
2023-04-17T01:03:02.675Z,1012.66
2023-04-17T01:04:02.546Z,1012.69
2023-04-17T01:05:02.120Z,1012.70
2023-04-17T01:06:02.313Z,1012.74
2023-04-17T01:07:02.608Z,1012.73
2023-04-17T01:08:02.852Z,1012.73
2023-04-17T01:09:03.154Z,1012.69
2023-04-17T01:10:02.994Z,1012.71
2023-04-17T01:11:03.208Z,1012.69
2023-04-17T01:12:02.694Z,1012.66
2023-04-17T01:13:02.861Z,1012.66
2023-04-17T01:14:02.676Z,1012.68
2023-04-17T01:15:02.512Z,1012.69
2023-04-17T01:16:02.497Z,1012.63
2023-04-17T01:17:01.825Z,1012.64
2023-04-17T01:18:02.387Z,1012.69
2023-04-17T01:19:01.859Z,1012.61
2023-04-17T01:20:01.939Z,1012.69
2023-04-17T01:21:02.396Z,1012.67
2023-04-17T01:22:02.898Z,1012.64
2023-04-17T01:23:02.544Z,1012.67
2023-04-17T01:24:02.921Z,1012.69
2023-04-17T01:25:02.874Z,1012.63
2023-04-17T01:26:02.531Z,1012.72
2023-04-17T01:27:01.953Z,1012.65
2023-04-17T01:28:02.012Z,1012.66
2023-04-17T01:29:02.345Z,1012.63
2023-04-17T01:30:02.379Z,1012.64
2023-04-17T01:31:02.003Z,1012.71
2023-04-17T01:32:02.540Z,1012.70
2023-04-17T01:33:02.439Z,1012.67
2023-04-17T01:34:02.430Z,1012.67
2023-04-17T01:35:02.769Z,1012.68
2023-04-17T01:36:02.449Z,1012.70
2023-04-17T01:37:02.440Z,1012.74
2023-04-17T01:38:02.449Z,1012.72
2023-04-17T01:39:02.848Z,1012.71
2023-04-17T01:40:02.617Z,1012.67
2023-04-17T01:41:02.605Z,1012.72
2023-04-17T01:42:02.492Z,1012.71
2023-04-17T01:43:02.364Z,1012.72
2023-04-17T01:44:02.837Z,1012.67
2023-04-17T01:45:02.771Z,1012.68
2023-04-17T01:46:02.831Z,1012.68
2023-04-17T01:47:01.777Z,1012.68
2023-04-17T01:48:02.206Z,1012.67
2023-04-17T01:49:02.274Z,1012.65
2023-04-17T01:50:02.355Z,1012.69
2023-04-17T01:51:02.218Z,1012.68
2023-04-17T01:52:02.524Z,1012.70
2023-04-17T01:53:02.828Z,1012.64
2023-04-17T01:54:02.781Z,1012.67
2023-04-17T01:55:02.800Z,1012.65
2023-04-17T01:56:02.489Z,1012.67
2023-04-17T01:57:03.257Z,1012.73
2023-04-17T01:58:03.096Z,1012.71
2023-04-17T01:59:03.057Z,1012.72
2023-04-17T02:00:02.782Z,1012.67
2023-04-17T02:01:02.587Z,1012.70
2023-04-17T02:02:02.365Z,1012.74
2023-04-17T02:03:01.846Z,1012.73
2023-04-17T02:04:02.038Z,1012.73
2023-04-17T02:05:02.128Z,1012.71
2023-04-17T02:06:02.056Z,1012.72
2023-04-17T02:07:02.630Z,1012.70
2023-04-17T02:08:02.894Z,1012.71
2023-04-17T02:09:02.634Z,1012.68
2023-04-17T02:10:02.667Z,1012.69
2023-04-17T02:11:02.872Z,1012.68
2023-04-17T02:12:02.033Z,1012.70
2023-04-17T02:13:01.853Z,1012.70
2023-04-17T02:14:02.028Z,1012.71
2023-04-17T02:15:01.791Z,1012.70
2023-04-17T02:16:02.365Z,1012.67
2023-04-17T02:17:02.104Z,1012.69
2023-04-17T02:18:02.150Z,1012.64
2023-04-17T02:19:02.565Z,1012.71
2023-04-17T02:20:02.044Z,1012.67
2023-04-17T02:21:02.324Z,1012.69
2023-04-17T02:22:02.653Z,1012.66
2023-04-17T02:23:02.848Z,1012.70
2023-04-17T02:24:02.907Z,1012.68
2023-04-17T02:25:02.467Z,1012.69
2023-04-17T02:26:02.429Z,1012.63
2023-04-17T02:27:02.066Z,1012.66
2023-04-17T02:28:01.937Z,1012.64
2023-04-17T02:29:01.956Z,1012.63
2023-04-17T02:30:02.122Z,1012.62
2023-04-17T02:31:02.021Z,1012.69
2023-04-17T02:32:02.949Z,1012.67
2023-04-17T02:33:02.905Z,1012.67
2023-04-17T02:34:02.770Z,1012.66
2023-04-17T02:35:02.980Z,1012.68
2023-04-17T02:36:02.438Z,1012.67
2023-04-17T02:37:02.583Z,1012.64
2023-04-17T02:38:02.559Z,1012.64
2023-04-17T02:39:02.378Z,1012.66
2023-04-17T02:40:02.528Z,1012.60
2023-04-17T02:41:02.304Z,1012.61
2023-04-17T02:42:03.063Z,1012.65
2023-04-17T02:43:02.814Z,1012.62
2023-04-17T02:44:02.729Z,1012.66
2023-04-17T02:45:02.439Z,1012.68
2023-04-17T02:46:02.483Z,1012.63
2023-04-17T02:47:02.487Z,1012.61
2023-04-17T02:48:02.039Z,1012.64
2023-04-17T02:49:02.188Z,1012.55
2023-04-17T02:50:02.156Z,1012.60
2023-04-17T02:51:02.152Z,1012.56
2023-04-17T02:52:02.204Z,1012.56
2023-04-17T02:53:02.624Z,1012.59
2023-04-17T02:54:02.374Z,1012.54
2023-04-17T02:55:02.412Z,1012.55
2023-04-17T02:56:02.459Z,1012.55
2023-04-17T02:57:02.193Z,1012.55
2023-04-17T02:58:02.662Z,1012.59
2023-04-17T02:59:02.572Z,1012.59
2023-04-17T03:00:02.360Z,1012.53
2023-04-17T03:01:02.408Z,1012.56
2023-04-17T03:02:02.487Z,1012.60
2023-04-17T03:03:03.063Z,1012.61
2023-04-17T03:04:02.769Z,1012.62
2023-04-17T03:05:02.959Z,1012.65
2023-04-17T03:06:02.371Z,1012.62
2023-04-17T03:07:02.912Z,1012.60
2023-04-17T03:08:02.757Z,1012.62
2023-04-17T03:09:02.973Z,1012.63
2023-04-17T03:10:02.629Z,1012.63
2023-04-17T03:11:02.724Z,1012.62
2023-04-17T03:12:03.660Z,1012.64
2023-04-17T03:13:03.410Z,1012.67
2023-04-17T03:14:03.124Z,1012.60
2023-04-17T03:15:03.456Z,1012.66
2023-04-17T03:16:03.404Z,1012.62
2023-04-17T03:17:02.338Z,1012.66
2023-04-17T03:18:02.765Z,1012.66
2023-04-17T03:19:02.442Z,1012.62
2023-04-17T03:20:02.541Z,1012.65
2023-04-17T03:21:02.403Z,1012.67
2023-04-17T03:22:02.995Z,1012.67
2023-04-17T03:23:02.850Z,1012.69
2023-04-17T03:24:02.830Z,1012.62
2023-04-17T03:25:03.265Z,1012.64
2023-04-17T03:26:03.466Z,1012.67
2023-04-17T03:27:02.782Z,1012.66
2023-04-17T03:28:02.609Z,1012.69
2023-04-17T03:29:02.562Z,1012.66
2023-04-17T03:30:02.556Z,1012.63
2023-04-17T03:31:02.385Z,1012.69
2023-04-17T03:32:03.347Z,1012.70
2023-04-17T03:33:03.175Z,1012.71
2023-04-17T03:34:03.242Z,1012.72
2023-04-17T03:35:03.135Z,1012.71
2023-04-17T03:36:03.467Z,1012.70
2023-04-17T03:37:02.790Z,1012.70
2023-04-17T03:38:03.300Z,1012.72
2023-04-17T03:39:02.913Z,1012.74
2023-04-17T03:40:02.968Z,1012.69
2023-04-17T03:41:02.802Z,1012.75
2023-04-17T03:42:03.249Z,1012.76
2023-04-17T03:43:03.469Z,1012.72
2023-04-17T03:44:03.552Z,1012.72
2023-04-17T03:45:03.545Z,1012.67
2023-04-17T03:46:03.422Z,1012.74
2023-04-17T03:47:02.411Z,1012.68
2023-04-17T03:48:02.715Z,1012.65
2023-04-17T03:49:02.582Z,1012.62
2023-04-17T03:50:02.607Z,1012.69
2023-04-17T03:51:02.794Z,1012.67
2023-04-17T03:52:02.675Z,1012.66
2023-04-17T03:53:03.198Z,1012.64
2023-04-17T03:54:03.301Z,1012.70
2023-04-17T03:55:03.227Z,1012.67
2023-04-17T03:56:03.232Z,1012.71
2023-04-17T03:57:03.042Z,1012.62
2023-04-17T03:58:02.925Z,1012.66
2023-04-17T03:59:03.073Z,1012.69
2023-04-17T04:00:02.989Z,1012.68
2023-04-17T04:01:03.093Z,1012.72
2023-04-17T04:02:02.140Z,1012.68
2023-04-17T04:03:02.764Z,1012.67
2023-04-17T04:04:02.400Z,1012.69
2023-04-17T04:05:02.658Z,1012.66
2023-04-17T04:06:02.359Z,1012.68
2023-04-17T04:07:02.414Z,1012.72
2023-04-17T04:08:02.127Z,1012.69
2023-04-17T04:09:02.542Z,1012.71
2023-04-17T04:10:02.420Z,1012.73
2023-04-17T04:11:02.453Z,1012.73
2023-04-17T04:12:02.127Z,1012.67
2023-04-17T04:13:01.830Z,1012.68
2023-04-17T04:14:02.268Z,1012.72
2023-04-17T04:15:02.195Z,1012.74
2023-04-17T04:16:02.151Z,1012.73
2023-04-17T04:17:02.253Z,1012.75
2023-04-17T04:18:01.908Z,1012.75
2023-04-17T04:19:02.177Z,1012.72
2023-04-17T04:20:02.350Z,1012.71
2023-04-17T04:21:01.898Z,1012.74
2023-04-17T04:22:02.191Z,1012.77
2023-04-17T04:23:02.366Z,1012.75
2023-04-17T04:24:02.292Z,1012.70
2023-04-17T04:25:02.152Z,1012.77
2023-04-17T04:26:02.242Z,1012.74
2023-04-17T04:27:03.147Z,1012.78
2023-04-17T04:28:03.199Z,1012.79
2023-04-17T04:29:02.782Z,1012.78
2023-04-17T04:30:03.220Z,1012.81
2023-04-17T04:31:03.245Z,1012.78
2023-04-17T04:32:02.425Z,1012.85
2023-04-17T04:33:02.051Z,1012.83
2023-04-17T04:34:02.343Z,1012.84
2023-04-17T04:35:02.445Z,1012.82
2023-04-17T04:36:02.187Z,1012.86
2023-04-17T04:37:02.884Z,1012.85
2023-04-17T04:38:03.186Z,1012.88
2023-04-17T04:39:02.614Z,1012.89
2023-04-17T04:40:03.043Z,1012.85
2023-04-17T04:41:03.187Z,1012.90
2023-04-17T04:42:02.565Z,1012.87
2023-04-17T04:43:02.280Z,1012.90
2023-04-17T04:44:02.191Z,1012.93
2023-04-17T04:45:02.322Z,1012.89
2023-04-17T04:46:02.164Z,1012.85
2023-04-17T04:47:02.824Z,1012.89
2023-04-17T04:48:02.799Z,1012.91
2023-04-17T04:49:02.741Z,1012.83
2023-04-17T04:50:03.097Z,1012.80
2023-04-17T04:51:02.911Z,1012.85
2023-04-17T04:52:02.527Z,1012.88
2023-04-17T04:53:02.419Z,1012.85
2023-04-17T04:54:02.431Z,1012.86
2023-04-17T04:55:02.548Z,1012.89
2023-04-17T04:56:02.638Z,1012.91
2023-04-17T04:57:02.683Z,1012.89
2023-04-17T04:58:02.190Z,1012.87
2023-04-17T04:59:02.706Z,1012.94
2023-04-17T05:00:02.750Z,1012.89
2023-04-17T05:01:02.867Z,1012.95
2023-04-17T05:02:03.276Z,1012.89
2023-04-17T05:03:02.935Z,1012.97
2023-04-17T05:04:03.006Z,1012.94
2023-04-17T05:05:03.274Z,1012.93
2023-04-17T05:06:03.342Z,1012.96
2023-04-17T05:07:02.226Z,1012.96
2023-04-17T05:08:02.125Z,1012.98
2023-04-17T05:09:02.302Z,1012.92
2023-04-17T05:10:02.232Z,1013.00
2023-04-17T05:11:02.616Z,1013.01
2023-04-17T05:12:02.789Z,1013.06
2023-04-17T05:13:02.654Z,1013.04
2023-04-17T05:14:02.853Z,1013.07
2023-04-17T05:15:03.235Z,1013.04
2023-04-17T05:16:03.013Z,1013.03
2023-04-17T05:17:02.511Z,1013.08
2023-04-17T05:18:02.176Z,1013.09
2023-04-17T05:19:02.130Z,1013.09
2023-04-17T05:20:02.339Z,1013.12
2023-04-17T05:21:02.473Z,1013.17
2023-04-17T05:22:03.048Z,1013.13
2023-04-17T05:23:02.630Z,1013.12
2023-04-17T05:24:02.561Z,1013.12
2023-04-17T05:25:02.455Z,1013.09
2023-04-17T05:26:03.114Z,1013.15
2023-04-17T05:27:02.497Z,1013.13
2023-04-17T05:28:02.505Z,1013.16
2023-04-17T05:29:02.475Z,1013.16
2023-04-17T05:30:02.885Z,1013.19
2023-04-17T05:31:02.525Z,1013.19
2023-04-17T05:32:02.871Z,1013.13
2023-04-17T05:33:03.218Z,1013.18
2023-04-17T05:34:02.764Z,1013.21
2023-04-17T05:35:03.305Z,1013.17
2023-04-17T05:36:03.129Z,1013.20
2023-04-17T05:37:02.472Z,1013.17
2023-04-17T05:38:03.063Z,1013.19
2023-04-17T05:39:02.921Z,1013.16
2023-04-17T05:40:03.054Z,1013.18
2023-04-17T05:41:02.696Z,1013.23
2023-04-17T05:42:03.395Z,1013.17
2023-04-17T05:43:03.251Z,1013.14
2023-04-17T05:44:03.229Z,1013.18
2023-04-17T05:45:02.948Z,1013.21
2023-04-17T05:46:03.279Z,1013.23
2023-04-17T05:47:02.706Z,1013.20
2023-04-17T05:48:02.777Z,1013.16
2023-04-17T05:49:03.187Z,1013.19
2023-04-17T05:50:02.756Z,1013.25
2023-04-17T05:51:03.059Z,1013.21
2023-04-17T05:52:03.096Z,1013.20
2023-04-17T05:53:02.986Z,1013.22
2023-04-17T05:54:02.808Z,1013.21
2023-04-17T05:55:03.169Z,1013.24
2023-04-17T05:56:03.213Z,1013.23
2023-04-17T05:57:02.486Z,1013.28
2023-04-17T05:58:10.427Z,1013.22
2023-04-17T05:59:02.190Z,1013.23
2023-04-17T06:00:02.262Z,1013.27
2023-04-17T06:01:02.277Z,1013.19
2023-04-17T06:02:02.672Z,1013.22
2023-04-17T06:03:02.976Z,1013.20
2023-04-17T06:04:02.997Z,1013.28
2023-04-17T06:05:02.624Z,1013.25
2023-04-17T06:06:02.535Z,1013.30
2023-04-17T06:07:02.853Z,1013.29
2023-04-17T06:08:03.455Z,1013.26
2023-04-17T06:09:03.526Z,1013.26
2023-04-17T06:10:03.460Z,1013.27
2023-04-17T06:11:03.283Z,1013.23
2023-04-17T06:12:02.425Z,1013.30
2023-04-17T06:13:02.376Z,1013.29
2023-04-17T06:14:02.646Z,1013.30
2023-04-17T06:15:02.565Z,1013.33
2023-04-17T06:16:02.121Z,1013.27
2023-04-17T06:17:03.060Z,1013.32
2023-04-17T06:18:02.736Z,1013.34
2023-04-17T06:19:03.169Z,1013.28
2023-04-17T06:20:02.620Z,1013.30
2023-04-17T06:21:02.608Z,1013.33
2023-04-17T06:22:03.010Z,1013.35
2023-04-17T06:23:02.792Z,1013.30
2023-04-17T06:24:02.882Z,1013.32
2023-04-17T06:25:03.035Z,1013.39
2023-04-17T06:26:03.268Z,1013.34
2023-04-17T06:27:02.508Z,1013.35
2023-04-17T06:28:02.367Z,1013.36
2023-04-17T06:29:02.372Z,1013.30
2023-04-17T06:30:02.374Z,1013.37
2023-04-17T06:31:02.273Z,1013.36
2023-04-17T06:32:02.726Z,1013.37
2023-04-17T06:33:02.985Z,1013.41
2023-04-17T06:34:02.627Z,1013.41
2023-04-17T06:35:02.633Z,1013.42
2023-04-17T06:36:02.766Z,1013.39
2023-04-17T06:37:03.570Z,1013.42
2023-04-17T06:38:03.512Z,1013.39
2023-04-17T06:39:03.241Z,1013.40
2023-04-17T06:40:03.543Z,1013.42
2023-04-17T06:41:03.064Z,1013.41
2023-04-17T06:42:03.044Z,1013.44
2023-04-17T06:43:02.914Z,1013.43
2023-04-17T06:44:02.894Z,1013.45
2023-04-17T06:45:02.589Z,1013.45
2023-04-17T06:46:02.547Z,1013.44
2023-04-17T06:55:05.259Z,1013.51
2023-04-17T06:56:04.971Z,1013.56
2023-04-17T06:57:05.341Z,1013.54
2023-04-17T06:58:05.073Z,1013.60
2023-04-17T06:59:04.865Z,1013.57
2023-04-17T07:00:04.337Z,1013.58
2023-04-17T07:01:04.803Z,1013.60
2023-04-17T07:02:05.012Z,1013.59
2023-04-17T07:03:04.831Z,1013.63
2023-04-17T07:04:05.132Z,1013.57
2023-04-17T07:05:05.117Z,1013.59
2023-04-17T07:06:05.342Z,1013.58
2023-04-17T07:07:04.855Z,1013.63
2023-04-17T07:08:04.921Z,1013.66
2023-04-17T07:09:04.738Z,1013.64
2023-04-17T07:10:04.328Z,1013.61
2023-04-17T07:12:09.019Z,1013.69
2023-04-17T07:13:08.993Z,1013.71
2023-04-17T07:14:10.906Z,1013.63
2023-04-17T07:15:08.979Z,1013.65
2023-04-17T07:16:09.009Z,1013.69
2023-04-17T07:16:14.275Z,1013.67
2023-04-17T07:17:02.346Z,1013.76
2023-04-17T07:18:02.494Z,1013.74
2023-04-17T07:19:02.623Z,1013.73
2023-04-17T07:20:02.677Z,1013.74
2023-04-17T07:21:02.720Z,1013.77
2023-04-17T07:22:02.761Z,1013.76
2023-04-17T07:23:02.850Z,1013.77
2023-04-17T07:24:02.761Z,1013.79
2023-04-17T07:25:02.833Z,1013.84
2023-04-17T07:26:02.929Z,1013.79
2023-04-17T07:27:03.221Z,1013.78
2023-04-17T07:28:04.490Z,1013.85
2023-04-17T07:29:02.881Z,1013.78
2023-04-17T07:30:03.413Z,1013.82
2023-04-17T07:31:03.365Z,1013.86
2023-04-17T07:32:02.326Z,1013.85
2023-04-17T07:33:02.189Z,1013.88
2023-04-17T07:34:02.322Z,1013.85
2023-04-17T07:35:02.343Z,1013.92
2023-04-17T07:36:02.163Z,1013.90
2023-04-17T07:37:02.514Z,1013.90
2023-04-17T07:38:02.238Z,1013.87
2023-04-17T07:39:02.377Z,1013.88
2023-04-17T07:40:02.295Z,1013.88
2023-04-17T07:41:02.370Z,1013.91
2023-04-17T07:42:03.083Z,1013.86
2023-04-17T07:43:03.252Z,1013.90
2023-04-17T07:44:03.166Z,1013.89
2023-04-17T07:45:02.955Z,1013.89
2023-04-17T07:46:03.120Z,1013.90
2023-04-17T07:47:03.209Z,1013.87
2023-04-17T07:48:03.405Z,1013.93
2023-04-17T07:49:03.093Z,1013.91
2023-04-17T07:50:03.583Z,1013.93
2023-04-17T07:51:02.957Z,1013.95
2023-04-17T07:52:02.671Z,1013.94
2023-04-17T07:53:02.902Z,1013.96
2023-04-17T07:54:02.655Z,1013.94
2023-04-17T07:55:02.777Z,1013.90
2023-04-17T07:56:02.850Z,1013.89
2023-04-17T07:57:02.973Z,1013.92
2023-04-17T07:58:02.693Z,1013.94
2023-04-17T07:59:02.714Z,1013.93
2023-04-17T08:00:03.559Z,1013.91
2023-04-17T08:01:02.686Z,1013.91
2023-04-17T08:02:03.790Z,1013.98
2023-04-17T08:03:03.962Z,1013.89
2023-04-17T08:04:03.876Z,1013.94
2023-04-17T08:05:03.738Z,1013.89
2023-04-17T08:06:03.156Z,1013.93
2023-04-17T08:07:02.933Z,1013.92
2023-04-17T08:08:02.837Z,1013.96
2023-04-17T08:09:03.224Z,1013.96
2023-04-17T08:10:02.982Z,1013.99
2023-04-17T08:11:02.828Z,1014.01
2023-04-17T08:12:03.581Z,1014.01
2023-04-17T08:13:03.498Z,1013.97
2023-04-17T08:14:03.493Z,1013.97
2023-04-17T08:15:03.841Z,1014.00
2023-04-17T08:16:03.517Z,1013.98
2023-04-17T08:17:03.334Z,1014.02
2023-04-17T08:18:03.335Z,1014.03
2023-04-17T08:19:03.062Z,1014.03
2023-04-17T08:20:03.215Z,1014.04
2023-04-17T08:21:03.479Z,1014.03
2023-04-17T08:22:03.237Z,1014.03
2023-04-17T08:23:03.380Z,1014.02
2023-04-17T08:24:03.038Z,1014.03
2023-04-17T08:25:03.082Z,1014.03
2023-04-17T08:26:03.275Z,1014.07
2023-04-17T08:27:03.229Z,1014.01
2023-04-17T08:28:03.218Z,1014.00
2023-04-17T08:29:03.274Z,1014.07
2023-04-17T08:30:03.115Z,1014.00
2023-04-17T08:31:03.574Z,1014.02
2023-04-17T08:32:13.861Z,1014.02
2023-04-17T08:33:03.384Z,1014.03
2023-04-17T08:34:13.678Z,1013.93
2023-04-17T08:35:03.369Z,1014.02
2023-04-17T08:36:05.294Z,1013.98
2023-04-17T08:37:03.603Z,1013.98
2023-04-17T08:38:03.656Z,1013.98
2023-04-17T08:39:03.708Z,1013.97
2023-04-17T08:40:03.567Z,1013.96
2023-04-17T08:41:03.597Z,1014.01
2023-04-17T08:42:03.666Z,1013.95
2023-04-17T08:43:03.535Z,1013.98
2023-04-17T08:44:03.502Z,1013.95
2023-04-17T08:45:03.391Z,1014.00
2023-04-17T08:46:03.657Z,1013.93
2023-04-17T08:47:02.692Z,1013.93
2023-04-17T08:48:02.554Z,1013.93
2023-04-17T08:49:02.565Z,1013.89
2023-04-17T08:50:02.633Z,1013.95
2023-04-17T08:51:02.425Z,1013.95
2023-04-17T08:52:03.230Z,1014.01
2023-04-17T08:53:02.833Z,1013.99
2023-04-17T08:54:02.695Z,1013.98
2023-04-17T08:55:03.302Z,1014.01
2023-04-17T08:56:03.967Z,1013.97
2023-04-17T08:57:03.300Z,1013.94
2023-04-17T08:58:03.257Z,1013.89
2023-04-17T08:59:03.551Z,1013.90
2023-04-17T09:00:03.376Z,1013.95
2023-04-17T09:01:03.534Z,1013.92
2023-04-17T09:02:02.936Z,1013.90
2023-04-17T09:03:03.116Z,1013.97
2023-04-17T09:04:03.386Z,1013.95
2023-04-17T09:05:03.145Z,1013.87
2023-04-17T09:06:03.024Z,1013.88
2023-04-17T09:07:02.291Z,1013.88
2023-04-17T09:08:02.549Z,1013.84
2023-04-17T09:09:02.624Z,1013.87
2023-04-17T09:10:02.708Z,1013.84
2023-04-17T09:11:02.761Z,1013.85
2023-04-17T09:12:03.428Z,1013.81
2023-04-17T09:13:02.931Z,1013.85
2023-04-17T09:14:02.990Z,1013.86
2023-04-17T09:15:03.318Z,1013.82
2023-04-17T09:16:02.956Z,1013.88
2023-04-17T09:17:03.348Z,1013.90
2023-04-17T09:18:03.236Z,1013.91
2023-04-17T09:19:03.392Z,1013.86
2023-04-17T09:20:03.074Z,1013.89
2023-04-17T09:21:03.141Z,1013.90
2023-04-17T09:22:02.486Z,1013.98
2023-04-17T09:23:02.965Z,1013.92
2023-04-17T09:24:02.725Z,1013.90
2023-04-17T09:25:02.909Z,1013.83
2023-04-17T09:26:02.938Z,1013.93
2023-04-17T09:27:02.895Z,1013.90
2023-04-17T09:28:02.970Z,1013.93
2023-04-17T09:29:03.175Z,1013.97
2023-04-17T09:30:03.297Z,1014.00
2023-04-17T09:31:03.088Z,1013.94
2023-04-17T09:32:02.961Z,1014.03
2023-04-17T09:33:02.505Z,1014.00
2023-04-17T09:34:03.037Z,1014.01
2023-04-17T09:35:03.044Z,1013.97
2023-04-17T09:36:02.669Z,1014.02
2023-04-17T09:37:03.007Z,1013.97
2023-04-17T09:38:02.955Z,1013.96
2023-04-17T09:39:02.787Z,1013.95
2023-04-17T09:40:02.831Z,1013.87
2023-04-17T09:41:02.793Z,1013.91
2023-04-17T09:42:03.920Z,1013.92
2023-04-17T09:43:03.025Z,1013.82
2023-04-17T09:44:03.021Z,1013.87
2023-04-17T09:45:03.037Z,1013.80
2023-04-17T09:46:03.476Z,1013.84
2023-04-17T09:47:03.081Z,1013.88
2023-04-17T09:48:02.698Z,1013.84
2023-04-17T09:49:02.637Z,1013.84
2023-04-17T09:50:02.593Z,1013.84
2023-04-17T09:51:02.505Z,1013.78
2023-04-17T09:52:02.596Z,1013.74
2023-04-17T09:53:02.550Z,1013.78
2023-04-17T09:54:02.708Z,1013.79
2023-04-17T09:55:02.894Z,1013.78
2023-04-17T09:56:02.946Z,1013.75
2023-04-17T09:57:02.943Z,1013.69
2023-04-17T09:58:03.281Z,1013.75
2023-04-17T09:59:03.594Z,1013.80
2023-04-17T10:00:03.589Z,1013.70
2023-04-17T10:01:03.200Z,1013.75
2023-04-17T10:02:04.000Z,1013.71
2023-04-17T10:03:04.061Z,1013.72
2023-04-17T10:04:03.457Z,1013.76
2023-04-17T10:05:03.600Z,1013.79
2023-04-17T10:06:03.260Z,1013.75
2023-04-17T10:07:02.769Z,1013.72
2023-04-17T10:08:03.081Z,1013.71
2023-04-17T10:09:02.705Z,1013.74
2023-04-17T10:10:03.319Z,1013.69
2023-04-17T10:11:03.329Z,1013.70
2023-04-17T10:12:03.407Z,1013.71
2023-04-17T10:13:03.090Z,1013.68
2023-04-17T10:14:03.341Z,1013.67
2023-04-17T10:15:03.351Z,1013.66
2023-04-17T10:16:03.275Z,1013.63
2023-04-17T10:17:03.725Z,1013.62
2023-04-17T10:18:03.456Z,1013.66
2023-04-17T10:19:03.396Z,1013.62
2023-04-17T10:20:03.520Z,1013.63
2023-04-17T10:21:05.396Z,1013.60
2023-04-17T10:22:02.689Z,1013.63
2023-04-17T10:23:02.927Z,1013.59
2023-04-17T10:24:02.669Z,1013.54
2023-04-17T10:25:02.462Z,1013.60
2023-04-17T10:26:03.074Z,1013.58
2023-04-17T10:27:02.748Z,1013.61
2023-04-17T10:28:02.722Z,1013.56
2023-04-17T10:29:02.673Z,1013.59
2023-04-17T10:30:03.304Z,1013.62
2023-04-17T10:31:03.291Z,1013.65
2023-04-17T10:32:03.017Z,1013.60
2023-04-17T10:33:03.456Z,1013.61
2023-04-17T10:34:02.938Z,1013.62
2023-04-17T10:35:03.383Z,1013.60
2023-04-17T10:36:03.199Z,1013.63
2023-04-17T10:37:03.043Z,1013.59
2023-04-17T10:38:03.365Z,1013.51
2023-04-17T10:39:03.368Z,1013.55
2023-04-17T10:40:03.355Z,1013.52
2023-04-17T10:41:03.356Z,1013.54
2023-04-17T10:42:03.343Z,1013.46
2023-04-17T10:43:03.347Z,1013.50
2023-04-17T10:44:03.412Z,1013.46
2023-04-17T10:45:03.534Z,1013.48
2023-04-17T10:46:03.550Z,1013.46
2023-04-17T10:47:02.578Z,1013.49
2023-04-17T10:48:02.661Z,1013.46
2023-04-17T10:49:02.748Z,1013.46
2023-04-17T10:50:02.946Z,1013.49
2023-04-17T10:51:03.129Z,1013.41
2023-04-17T10:52:02.807Z,1013.45
2023-04-17T10:53:02.926Z,1013.48
2023-04-17T10:54:02.938Z,1013.47
2023-04-17T10:55:02.855Z,1013.47
2023-04-17T10:56:02.848Z,1013.44
2023-04-17T10:57:03.328Z,1013.48
2023-04-17T10:58:03.667Z,1013.52
2023-04-17T10:59:03.652Z,1013.50
2023-04-17T11:00:03.525Z,1013.49
2023-04-17T11:01:03.509Z,1013.42
2023-04-17T11:02:02.759Z,1013.43
2023-04-17T11:03:02.799Z,1013.36
2023-04-17T11:04:02.638Z,1013.32
2023-04-17T11:05:02.993Z,1013.33
2023-04-17T11:06:02.762Z,1013.30
2023-04-17T11:07:02.710Z,1013.32
2023-04-17T11:08:02.560Z,1013.31
2023-04-17T11:09:02.620Z,1013.35
2023-04-17T11:10:03.166Z,1013.37
2023-04-17T11:11:03.143Z,1013.28
2023-04-17T11:12:03.139Z,1013.26
2023-04-17T11:13:03.062Z,1013.35
2023-04-17T11:14:03.293Z,1013.29
2023-04-17T11:15:03.118Z,1013.38
2023-04-17T11:16:03.284Z,1013.45
2023-04-17T11:17:03.124Z,1013.44
2023-04-17T11:18:03.102Z,1013.40
2023-04-17T11:19:02.986Z,1013.42
2023-04-17T11:20:03.608Z,1013.40
2023-04-17T11:21:03.045Z,1013.39
2023-04-17T11:22:03.062Z,1013.37
2023-04-17T11:23:02.893Z,1013.38
2023-04-17T11:24:02.748Z,1013.35
2023-04-17T11:25:02.742Z,1013.35
2023-04-17T11:26:02.704Z,1013.28
2023-04-17T11:27:02.723Z,1013.36
2023-04-17T11:28:02.706Z,1013.38
2023-04-17T11:29:02.509Z,1013.36
2023-04-17T11:30:02.784Z,1013.40
2023-04-17T11:31:03.105Z,1013.32
2023-04-17T11:32:03.000Z,1013.30
2023-04-17T11:33:03.261Z,1013.34
2023-04-17T11:34:03.078Z,1013.28
2023-04-17T11:35:02.892Z,1013.37
2023-04-17T11:36:02.873Z,1013.32
2023-04-17T11:37:03.384Z,1013.20
2023-04-17T11:38:03.373Z,1013.31
2023-04-17T11:39:03.327Z,1013.38
2023-04-17T11:40:03.426Z,1013.36
2023-04-17T11:41:03.649Z,1013.35
2023-04-17T11:42:03.455Z,1013.32
2023-04-17T11:43:03.606Z,1013.32
2023-04-17T11:44:03.291Z,1013.32
2023-04-17T11:45:04.355Z,1013.31
2023-04-17T11:46:03.547Z,1013.28
2023-04-17T11:47:03.172Z,1013.27
2023-04-17T11:48:03.213Z,1013.30
2023-04-17T11:49:03.108Z,1013.27
2023-04-17T11:50:03.442Z,1013.32
2023-04-17T11:51:03.586Z,1013.30
2023-04-17T11:52:03.556Z,1013.31
2023-04-17T11:53:03.746Z,1013.35
2023-04-17T11:54:03.248Z,1013.34
2023-04-17T11:55:03.150Z,1013.32
2023-04-17T11:56:03.716Z,1013.32
2023-04-17T11:57:03.358Z,1013.29
2023-04-17T11:58:03.186Z,1013.29
2023-04-17T11:59:03.347Z,1013.38
2023-04-17T12:00:03.167Z,1013.37
2023-04-17T12:01:03.127Z,1013.30
2023-04-17T12:02:02.552Z,1013.33
2023-04-17T12:03:02.952Z,1013.34
2023-04-17T12:04:02.323Z,1013.31
2023-04-17T12:05:02.938Z,1013.31
2023-04-17T12:06:02.784Z,1013.31
2023-04-17T12:07:03.230Z,1013.32
2023-04-17T12:08:02.869Z,1013.36
2023-04-17T12:09:03.125Z,1013.37
2023-04-17T12:10:02.787Z,1013.38
2023-04-17T12:11:03.039Z,1013.36
2023-04-17T12:12:03.530Z,1013.34
2023-04-17T12:13:03.261Z,1013.34